sensor_id;sensor_type;location;lat;lon;timestamp;P1;durP1;ratioP1;P2;durP2;ratioP2
7761;SDS011;3925;48.636;9.516;2023-02-28T00:01:23;4.13;;;3.60;;
7761;SDS011;3925;48.636;9.516;2023-02-28T00:03:50;5.50;;;3.77;;
7761;SDS011;3925;48.636;9.516;2023-02-28T00:06:17;2.97;;;2.73;;
7761;SDS011;3925;48.636;9.516;2023-02-28T00:08:44;2.30;;;2.10;;
7761;SDS011;3925;48.636;9.516;2023-02-28T00:11:12;2.70;;;2.50;;
7761;SDS011;3925;48.636;9.516;2023-02-28T00:13:41;4.60;;;3.40;;
7761;SDS011;3925;48.636;9.516;2023-02-28T00:16:13;3.30;;;3.00;;
7761;SDS011;3925;48.636;9.516;2023-02-28T00:18:41;4.40;;;3.00;;
7761;SDS011;3925;48.636;9.516;2023-02-28T00:21:08;3.47;;;3.13;;
7761;SDS011;3925;48.636;9.516;2023-02-28T00:23:35;3.20;;;2.90;;
7761;SDS011;3925;48.636;9.516;2023-02-28T00:26:03;2.75;;;2.30;;
7761;SDS011;3925;48.636;9.516;2023-02-28T00:28:31;3.17;;;2.57;;
7761;SDS011;3925;48.636;9.516;2023-02-28T00:30:58;2.97;;;2.40;;
7761;SDS011;3925;48.636;9.516;2023-02-28T00:33:27;4.67;;;2.60;;
7761;SDS011;3925;48.636;9.516;2023-02-28T00:36:01;3.27;;;2.97;;
7761;SDS011;3925;48.636;9.516;2023-02-28T00:38:30;3.60;;;2.50;;
7761;SDS011;3925;48.636;9.516;2023-02-28T00:40:57;3.40;;;3.10;;
7761;SDS011;3925;48.636;9.516;2023-02-28T00:43:29;2.73;;;2.40;;
7761;SDS011;3925;48.636;9.516;2023-02-28T00:45:56;4.20;;;2.83;;
7761;SDS011;3925;48.636;9.516;2023-02-28T00:48:23;3.50;;;3.20;;
7761;SDS011;3925;48.636;9.516;2023-02-28T00:50:52;3.43;;;2.90;;
7761;SDS011;3925;48.636;9.516;2023-02-28T00:53:19;3.67;;;2.73;;
7761;SDS011;3925;48.636;9.516;2023-02-28T00:55:47;2.83;;;2.63;;
7761;SDS011;3925;48.636;9.516;2023-02-28T00:58:14;2.80;;;2.53;;
7761;SDS011;3925;48.636;9.516;2023-02-28T01:00:41;2.73;;;2.53;;
7761;SDS011;3925;48.636;9.516;2023-02-28T01:03:07;2.70;;;2.27;;
7761;SDS011;3925;48.636;9.516;2023-02-28T01:05:34;3.27;;;2.37;;
7761;SDS011;3925;48.636;9.516;2023-02-28T01:08:03;2.50;;;2.30;;
7761;SDS011;3925;48.636;9.516;2023-02-28T01:10:30;2.80;;;2.57;;
7761;SDS011;3925;48.636;9.516;2023-02-28T01:12:57;3.80;;;3.40;;
7761;SDS011;3925;48.636;9.516;2023-02-28T01:15:24;3.73;;;3.43;;
7761;SDS011;3925;48.636;9.516;2023-02-28T01:17:51;3.70;;;3.40;;
7761;SDS011;3925;48.636;9.516;2023-02-28T01:20:17;2.87;;;2.67;;
7761;SDS011;3925;48.636;9.516;2023-02-28T01:22:45;2.83;;;2.60;;
7761;SDS011;3925;48.636;9.516;2023-02-28T01:25:13;5.57;;;2.47;;
7761;SDS011;3925;48.636;9.516;2023-02-28T01:27:40;3.40;;;2.70;;
7761;SDS011;3925;48.636;9.516;2023-02-28T01:30:07;4.13;;;2.80;;
7761;SDS011;3925;48.636;9.516;2023-02-28T01:32:35;2.73;;;2.53;;
7761;SDS011;3925;48.636;9.516;2023-02-28T01:35:03;3.47;;;2.20;;
7761;SDS011;3925;48.636;9.516;2023-02-28T01:37:30;3.30;;;2.70;;
7761;SDS011;3925;48.636;9.516;2023-02-28T01:39:57;3.70;;;2.97;;
7761;SDS011;3925;48.636;9.516;2023-02-28T01:42:25;4.93;;;3.25;;
7761;SDS011;3925;48.636;9.516;2023-02-28T01:44:57;3.10;;;2.57;;
7761;SDS011;3925;48.636;9.516;2023-02-28T01:47:31;4.67;;;3.30;;
7761;SDS011;3925;48.636;9.516;2023-02-28T01:50:01;2.87;;;2.67;;
7761;SDS011;3925;48.636;9.516;2023-02-28T01:52:31;3.37;;;3.07;;
7761;SDS011;3925;48.636;9.516;2023-02-28T01:55:00;4.40;;;3.67;;
7761;SDS011;3925;48.636;9.516;2023-02-28T01:57:32;3.37;;;2.60;;
7761;SDS011;3925;48.636;9.516;2023-02-28T02:00:05;3.13;;;2.80;;
7761;SDS011;3925;48.636;9.516;2023-02-28T02:02:35;5.60;;;3.20;;
7761;SDS011;3925;48.636;9.516;2023-02-28T02:05:04;3.33;;;2.97;;
7761;SDS011;3925;48.636;9.516;2023-02-28T02:07:33;3.03;;;2.83;;
7761;SDS011;3925;48.636;9.516;2023-02-28T02:10:04;4.70;;;3.80;;
7761;SDS011;3925;48.636;9.516;2023-02-28T02:12:41;3.13;;;2.90;;
7761;SDS011;3925;48.636;9.516;2023-02-28T02:15:30;3.40;;;3.10;;
7761;SDS011;3925;48.636;9.516;2023-02-28T02:18:01;3.33;;;3.03;;
7761;SDS011;3925;48.636;9.516;2023-02-28T02:20:46;3.67;;;3.33;;
7761;SDS011;3925;48.636;9.516;2023-02-28T02:23:44;5.00;;;3.13;;
7761;SDS011;3925;48.636;9.516;2023-02-28T02:26:51;4.23;;;3.93;;
7761;SDS011;3925;48.636;9.516;2023-02-28T02:32:54;3.63;;;3.33;;
7761;SDS011;3925;48.636;9.516;2023-02-28T02:35:39;3.37;;;3.17;;
7761;SDS011;3925;48.636;9.516;2023-02-28T02:38:10;4.57;;;4.17;;
7761;SDS011;3925;48.636;9.516;2023-02-28T02:40:45;6.20;;;3.40;;
7761;SDS011;3925;48.636;9.516;2023-02-28T02:43:18;5.93;;;3.27;;
7761;SDS011;3925;48.636;9.516;2023-02-28T02:45:49;4.77;;;3.33;;
7761;SDS011;3925;48.636;9.516;2023-02-28T02:48:21;6.13;;;4.10;;
7761;SDS011;3925;48.636;9.516;2023-02-28T02:50:55;3.63;;;3.33;;
7761;SDS011;3925;48.636;9.516;2023-02-28T02:53:25;3.83;;;3.53;;
7761;SDS011;3925;48.636;9.516;2023-02-28T02:55:58;3.50;;;3.17;;
7761;SDS011;3925;48.636;9.516;2023-02-28T02:58:29;4.27;;;3.60;;
7761;SDS011;3925;48.636;9.516;2023-02-28T03:01:00;8.37;;;3.77;;
7761;SDS011;3925;48.636;9.516;2023-02-28T03:03:29;4.93;;;4.17;;
7761;SDS011;3925;48.636;9.516;2023-02-28T03:06:00;3.90;;;3.60;;
7761;SDS011;3925;48.636;9.516;2023-02-28T03:08:28;4.60;;;3.40;;
7761;SDS011;3925;48.636;9.516;2023-02-28T03:11:01;4.87;;;4.00;;
7761;SDS011;3925;48.636;9.516;2023-02-28T03:13:38;5.88;;;3.72;;
7761;SDS011;3925;48.636;9.516;2023-02-28T03:16:23;4.63;;;4.03;;
7761;SDS011;3925;48.636;9.516;2023-02-28T03:19:03;4.20;;;3.20;;
7761;SDS011;3925;48.636;9.516;2023-02-28T03:21:45;4.20;;;3.80;;
7761;SDS011;3925;48.636;9.516;2023-02-28T03:24:21;4.43;;;4.03;;
7761;SDS011;3925;48.636;9.516;2023-02-28T03:26:57;3.93;;;3.63;;
7761;SDS011;3925;48.636;9.516;2023-02-28T03:29:32;3.70;;;3.40;;
7761;SDS011;3925;48.636;9.516;2023-02-28T03:32:02;4.30;;;4.00;;
7761;SDS011;3925;48.636;9.516;2023-02-28T03:34:39;3.80;;;3.33;;
7761;SDS011;3925;48.636;9.516;2023-02-28T03:37:13;4.90;;;3.80;;
7761;SDS011;3925;48.636;9.516;2023-02-28T03:39:45;3.70;;;3.40;;
7761;SDS011;3925;48.636;9.516;2023-02-28T03:42:15;3.77;;;3.37;;
7761;SDS011;3925;48.636;9.516;2023-02-28T03:44:46;5.77;;;3.60;;
7761;SDS011;3925;48.636;9.516;2023-02-28T03:47:19;4.83;;;4.27;;
7761;SDS011;3925;48.636;9.516;2023-02-28T03:49:52;4.37;;;3.97;;
7761;SDS011;3925;48.636;9.516;2023-02-28T03:52:25;3.77;;;3.47;;
7761;SDS011;3925;48.636;9.516;2023-02-28T03:54:59;6.03;;;4.10;;
7761;SDS011;3925;48.636;9.516;2023-02-28T03:57:32;6.63;;;4.20;;
7761;SDS011;3925;48.636;9.516;2023-02-28T04:00:04;5.00;;;4.10;;
7761;SDS011;3925;48.636;9.516;2023-02-28T04:02:34;6.97;;;3.90;;
7761;SDS011;3925;48.636;9.516;2023-02-28T04:05:01;5.30;;;3.97;;
7761;SDS011;3925;48.636;9.516;2023-02-28T04:07:31;6.10;;;4.20;;
7761;SDS011;3925;48.636;9.516;2023-02-28T04:09:58;5.33;;;3.67;;
7761;SDS011;3925;48.636;9.516;2023-02-28T04:12:25;4.40;;;3.97;;
7761;SDS011;3925;48.636;9.516;2023-02-28T04:14:52;3.87;;;3.40;;
7761;SDS011;3925;48.636;9.516;2023-02-28T04:17:19;4.73;;;4.20;;
7761;SDS011;3925;48.636;9.516;2023-02-28T04:19:46;4.63;;;3.80;;
7761;SDS011;3925;48.636;9.516;2023-02-28T04:22:13;5.80;;;5.20;;
7761;SDS011;3925;48.636;9.516;2023-02-28T04:24:43;4.60;;;4.13;;
7761;SDS011;3925;48.636;9.516;2023-02-28T04:27:10;4.83;;;4.30;;
7761;SDS011;3925;48.636;9.516;2023-02-28T04:29:37;4.80;;;4.30;;
7761;SDS011;3925;48.636;9.516;2023-02-28T04:32:04;6.70;;;5.03;;
7761;SDS011;3925;48.636;9.516;2023-02-28T04:34:31;5.30;;;4.80;;
7761;SDS011;3925;48.636;9.516;2023-02-28T04:36:58;5.07;;;4.67;;
7761;SDS011;3925;48.636;9.516;2023-02-28T04:39:26;6.10;;;4.70;;
7761;SDS011;3925;48.636;9.516;2023-02-28T04:41:54;5.00;;;4.60;;
7761;SDS011;3925;48.636;9.516;2023-02-28T04:44:21;11.23;;;4.60;;
7761;SDS011;3925;48.636;9.516;2023-02-28T04:46:48;5.90;;;4.10;;
7761;SDS011;3925;48.636;9.516;2023-02-28T04:49:15;5.20;;;4.20;;
7761;SDS011;3925;48.636;9.516;2023-02-28T04:51:42;5.23;;;4.57;;
7761;SDS011;3925;48.636;9.516;2023-02-28T04:54:09;6.10;;;4.47;;
7761;SDS011;3925;48.636;9.516;2023-02-28T04:56:36;5.57;;;4.50;;
7761;SDS011;3925;48.636;9.516;2023-02-28T04:59:04;6.13;;;4.40;;
7761;SDS011;3925;48.636;9.516;2023-02-28T05:01:31;6.50;;;5.00;;
7761;SDS011;3925;48.636;9.516;2023-02-28T05:04:00;6.17;;;5.57;;
7761;SDS011;3925;48.636;9.516;2023-02-28T05:06:29;4.80;;;4.40;;
7761;SDS011;3925;48.636;9.516;2023-02-28T05:08:57;5.37;;;4.70;;
7761;SDS011;3925;48.636;9.516;2023-02-28T05:11:25;4.80;;;4.40;;
7761;SDS011;3925;48.636;9.516;2023-02-28T05:13:58;6.20;;;5.03;;
7761;SDS011;3925;48.636;9.516;2023-02-28T05:16:27;5.80;;;4.50;;
7761;SDS011;3925;48.636;9.516;2023-02-28T05:18:54;5.77;;;5.03;;
7761;SDS011;3925;48.636;9.516;2023-02-28T05:21:25;5.73;;;4.90;;
7761;SDS011;3925;48.636;9.516;2023-02-28T05:23:55;6.57;;;5.00;;
7761;SDS011;3925;48.636;9.516;2023-02-28T05:26:23;5.77;;;5.23;;
7761;SDS011;3925;48.636;9.516;2023-02-28T05:28:50;7.77;;;5.27;;
7761;SDS011;3925;48.636;9.516;2023-02-28T05:31:18;6.13;;;5.27;;
7761;SDS011;3925;48.636;9.516;2023-02-28T05:33:47;5.70;;;5.17;;
7761;SDS011;3925;48.636;9.516;2023-02-28T05:36:14;5.40;;;4.90;;
7761;SDS011;3925;48.636;9.516;2023-02-28T05:38:40;6.10;;;4.53;;
7761;SDS011;3925;48.636;9.516;2023-02-28T05:41:08;5.17;;;4.67;;
7761;SDS011;3925;48.636;9.516;2023-02-28T05:43:35;5.77;;;5.27;;
7761;SDS011;3925;48.636;9.516;2023-02-28T05:46:03;5.30;;;4.80;;
7761;SDS011;3925;48.636;9.516;2023-02-28T05:48:31;5.83;;;5.27;;
7761;SDS011;3925;48.636;9.516;2023-02-28T05:51:00;6.50;;;5.50;;
7761;SDS011;3925;48.636;9.516;2023-02-28T05:53:27;5.97;;;5.37;;
7761;SDS011;3925;48.636;9.516;2023-02-28T05:55:54;7.87;;;5.70;;
7761;SDS011;3925;48.636;9.516;2023-02-28T05:58:21;6.33;;;5.73;;
7761;SDS011;3925;48.636;9.516;2023-02-28T06:00:48;6.67;;;5.93;;
7761;SDS011;3925;48.636;9.516;2023-02-28T06:03:15;6.73;;;5.50;;
7761;SDS011;3925;48.636;9.516;2023-02-28T06:05:42;11.73;;;6.00;;
7761;SDS011;3925;48.636;9.516;2023-02-28T06:08:10;10.20;;;6.57;;
7761;SDS011;3925;48.636;9.516;2023-02-28T06:10:37;5.17;;;4.60;;
7761;SDS011;3925;48.636;9.516;2023-02-28T06:13:04;7.90;;;6.23;;
7761;SDS011;3925;48.636;9.516;2023-02-28T06:15:32;10.15;;;6.38;;
7761;SDS011;3925;48.636;9.516;2023-02-28T06:17:59;7.27;;;6.37;;
7761;SDS011;3925;48.636;9.516;2023-02-28T06:20:26;6.90;;;6.00;;
7761;SDS011;3925;48.636;9.516;2023-02-28T06:22:54;6.13;;;5.45;;
7761;SDS011;3925;48.636;9.516;2023-02-28T06:25:25;6.60;;;5.83;;
7761;SDS011;3925;48.636;9.516;2023-02-28T06:27:52;6.38;;;5.63;;
7761;SDS011;3925;48.636;9.516;2023-02-28T06:30:20;7.70;;;6.10;;
7761;SDS011;3925;48.636;9.516;2023-02-28T06:32:50;8.18;;;6.40;;
7761;SDS011;3925;48.636;9.516;2023-02-28T06:35:17;7.10;;;5.72;;
7761;SDS011;3925;48.636;9.516;2023-02-28T06:37:43;7.97;;;5.40;;
7761;SDS011;3925;48.636;9.516;2023-02-28T06:40:12;9.33;;;6.23;;
7761;SDS011;3925;48.636;9.516;2023-02-28T06:42:41;7.60;;;6.07;;
7761;SDS011;3925;48.636;9.516;2023-02-28T06:45:08;5.93;;;5.43;;
7761;SDS011;3925;48.636;9.516;2023-02-28T06:47:36;6.23;;;5.63;;
7761;SDS011;3925;48.636;9.516;2023-02-28T06:50:04;6.90;;;6.20;;
7761;SDS011;3925;48.636;9.516;2023-02-28T06:52:32;7.03;;;5.80;;
7761;SDS011;3925;48.636;9.516;2023-02-28T06:55:01;6.17;;;5.57;;
7761;SDS011;3925;48.636;9.516;2023-02-28T06:57:28;6.60;;;5.93;;
7761;SDS011;3925;48.636;9.516;2023-02-28T06:59:58;7.00;;;6.40;;
7761;SDS011;3925;48.636;9.516;2023-02-28T07:02:26;7.03;;;6.33;;
7761;SDS011;3925;48.636;9.516;2023-02-28T07:04:53;6.43;;;5.80;;
7761;SDS011;3925;48.636;9.516;2023-02-28T07:07:19;7.13;;;6.50;;
7761;SDS011;3925;48.636;9.516;2023-02-28T07:09:46;6.73;;;6.07;;
7761;SDS011;3925;48.636;9.516;2023-02-28T07:12:14;9.57;;;7.13;;
7761;SDS011;3925;48.636;9.516;2023-02-28T07:14:40;8.73;;;6.50;;
7761;SDS011;3925;48.636;9.516;2023-02-28T07:17:09;7.60;;;6.10;;
7761;SDS011;3925;48.636;9.516;2023-02-28T07:19:37;9.43;;;7.07;;
7761;SDS011;3925;48.636;9.516;2023-02-28T07:22:04;8.50;;;7.63;;
7761;SDS011;3925;48.636;9.516;2023-02-28T07:24:31;9.20;;;7.90;;
7761;SDS011;3925;48.636;9.516;2023-02-28T07:26:58;6.93;;;5.73;;
7761;SDS011;3925;48.636;9.516;2023-02-28T07:29:25;9.10;;;6.50;;
7761;SDS011;3925;48.636;9.516;2023-02-28T07:31:52;8.13;;;7.30;;
7761;SDS011;3925;48.636;9.516;2023-02-28T07:34:21;9.93;;;7.67;;
7761;SDS011;3925;48.636;9.516;2023-02-28T07:36:48;6.67;;;6.00;;
7761;SDS011;3925;48.636;9.516;2023-02-28T07:39:18;8.10;;;6.90;;
7761;SDS011;3925;48.636;9.516;2023-02-28T07:41:46;9.40;;;6.87;;
7761;SDS011;3925;48.636;9.516;2023-02-28T07:44:13;8.83;;;7.33;;
7761;SDS011;3925;48.636;9.516;2023-02-28T07:46:40;7.77;;;7.07;;
7761;SDS011;3925;48.636;9.516;2023-02-28T07:49:07;6.70;;;5.97;;
7761;SDS011;3925;48.636;9.516;2023-02-28T07:51:35;7.77;;;6.50;;
7761;SDS011;3925;48.636;9.516;2023-02-28T07:54:02;8.57;;;7.43;;
7761;SDS011;3925;48.636;9.516;2023-02-28T07:56:29;10.03;;;7.07;;
7761;SDS011;3925;48.636;9.516;2023-02-28T07:58:56;7.90;;;7.10;;
7761;SDS011;3925;48.636;9.516;2023-02-28T08:01:23;7.50;;;6.77;;
7761;SDS011;3925;48.636;9.516;2023-02-28T08:03:51;9.30;;;6.67;;
7761;SDS011;3925;48.636;9.516;2023-02-28T08:06:20;8.23;;;6.70;;
7761;SDS011;3925;48.636;9.516;2023-02-28T08:08:50;9.83;;;8.80;;
7761;SDS011;3925;48.636;9.516;2023-02-28T08:11:17;9.87;;;7.17;;
7761;SDS011;3925;48.636;9.516;2023-02-28T08:13:44;8.83;;;7.23;;
7761;SDS011;3925;48.636;9.516;2023-02-28T08:16:12;8.23;;;7.43;;
7761;SDS011;3925;48.636;9.516;2023-02-28T08:18:42;11.97;;;8.10;;
7761;SDS011;3925;48.636;9.516;2023-02-28T08:21:10;9.40;;;7.00;;
7761;SDS011;3925;48.636;9.516;2023-02-28T08:23:37;9.67;;;8.10;;
7761;SDS011;3925;48.636;9.516;2023-02-28T08:26:06;8.10;;;7.30;;
7761;SDS011;3925;48.636;9.516;2023-02-28T08:28:33;9.80;;;7.50;;
7761;SDS011;3925;48.636;9.516;2023-02-28T08:31:00;9.20;;;7.63;;
7761;SDS011;3925;48.636;9.516;2023-02-28T08:33:32;7.90;;;7.00;;
7761;SDS011;3925;48.636;9.516;2023-02-28T08:35:59;8.43;;;7.40;;
7761;SDS011;3925;48.636;9.516;2023-02-28T08:38:26;9.47;;;8.47;;
7761;SDS011;3925;48.636;9.516;2023-02-28T08:40:57;9.30;;;8.40;;
7761;SDS011;3925;48.636;9.516;2023-02-28T08:43:26;7.60;;;6.47;;
7761;SDS011;3925;48.636;9.516;2023-02-28T08:45:53;10.10;;;8.43;;
7761;SDS011;3925;48.636;9.516;2023-02-28T08:48:21;9.27;;;8.37;;
7761;SDS011;3925;48.636;9.516;2023-02-28T08:50:54;8.17;;;7.27;;
7761;SDS011;3925;48.636;9.516;2023-02-28T08:53:23;7.03;;;6.32;;
7761;SDS011;3925;48.636;9.516;2023-02-28T08:55:55;8.83;;;7.43;;
7761;SDS011;3925;48.636;9.516;2023-02-28T08:58:23;8.87;;;7.97;;
7761;SDS011;3925;48.636;9.516;2023-02-28T09:00:51;8.43;;;6.70;;
7761;SDS011;3925;48.636;9.516;2023-02-28T09:03:18;8.50;;;7.00;;
7761;SDS011;3925;48.636;9.516;2023-02-28T09:05:51;8.97;;;7.47;;
7761;SDS011;3925;48.636;9.516;2023-02-28T09:08:19;9.10;;;8.10;;
7761;SDS011;3925;48.636;9.516;2023-02-28T09:10:46;8.97;;;7.30;;
7761;SDS011;3925;48.636;9.516;2023-02-28T09:13:13;9.83;;;8.03;;
7761;SDS011;3925;48.636;9.516;2023-02-28T09:15:40;8.90;;;7.53;;
7761;SDS011;3925;48.636;9.516;2023-02-28T09:18:08;11.67;;;9.57;;
7761;SDS011;3925;48.636;9.516;2023-02-28T09:20:37;9.27;;;7.50;;
7761;SDS011;3925;48.636;9.516;2023-02-28T09:23:05;10.67;;;6.90;;
7761;SDS011;3925;48.636;9.516;2023-02-28T09:25:32;11.37;;;7.50;;
7761;SDS011;3925;48.636;9.516;2023-02-28T09:27:59;9.27;;;7.80;;
7761;SDS011;3925;48.636;9.516;2023-02-28T09:30:26;8.90;;;7.43;;
7761;SDS011;3925;48.636;9.516;2023-02-28T09:32:53;8.80;;;7.40;;
7761;SDS011;3925;48.636;9.516;2023-02-28T09:35:22;12.47;;;8.43;;
7761;SDS011;3925;48.636;9.516;2023-02-28T09:37:52;9.13;;;6.83;;
7761;SDS011;3925;48.636;9.516;2023-02-28T09:40:19;9.13;;;8.13;;
7761;SDS011;3925;48.636;9.516;2023-02-28T09:42:49;9.30;;;7.67;;
7761;SDS011;3925;48.636;9.516;2023-02-28T09:45:21;8.17;;;7.33;;
7761;SDS011;3925;48.636;9.516;2023-02-28T09:47:50;8.40;;;7.53;;
7761;SDS011;3925;48.636;9.516;2023-02-28T09:50:26;8.30;;;7.50;;
7761;SDS011;3925;48.636;9.516;2023-02-28T09:52:57;8.10;;;6.77;;
7761;SDS011;3925;48.636;9.516;2023-02-28T09:55:28;8.30;;;7.60;;
7761;SDS011;3925;48.636;9.516;2023-02-28T09:57:59;8.43;;;7.50;;
7761;SDS011;3925;48.636;9.516;2023-02-28T10:00:28;9.90;;;8.07;;
7761;SDS011;3925;48.636;9.516;2023-02-28T10:05:53;8.77;;;7.83;;
7761;SDS011;3925;48.636;9.516;2023-02-28T10:08:28;9.80;;;7.33;;
7761;SDS011;3925;48.636;9.516;2023-02-28T10:11:00;7.90;;;7.10;;
7761;SDS011;3925;48.636;9.516;2023-02-28T10:13:32;10.17;;;8.53;;
7761;SDS011;3925;48.636;9.516;2023-02-28T10:16:02;10.20;;;8.17;;
7761;SDS011;3925;48.636;9.516;2023-02-28T10:18:36;8.33;;;7.47;;
7761;SDS011;3925;48.636;9.516;2023-02-28T10:21:15;9.13;;;8.13;;
7761;SDS011;3925;48.636;9.516;2023-02-28T10:23:46;9.17;;;8.20;;
7761;SDS011;3925;48.636;9.516;2023-02-28T10:26:14;9.90;;;8.80;;
7761;SDS011;3925;48.636;9.516;2023-02-28T10:28:43;9.43;;;7.67;;
7761;SDS011;3925;48.636;9.516;2023-02-28T10:31:11;9.20;;;7.83;;
7761;SDS011;3925;48.636;9.516;2023-02-28T10:33:42;9.67;;;8.57;;
7761;SDS011;3925;48.636;9.516;2023-02-28T10:36:10;8.90;;;8.00;;
7761;SDS011;3925;48.636;9.516;2023-02-28T10:38:42;10.97;;;8.87;;
7761;SDS011;3925;48.636;9.516;2023-02-28T10:41:12;8.10;;;7.37;;
7761;SDS011;3925;48.636;9.516;2023-02-28T10:43:40;8.17;;;7.37;;
7761;SDS011;3925;48.636;9.516;2023-02-28T10:46:11;8.60;;;7.80;;
7761;SDS011;3925;48.636;9.516;2023-02-28T10:48:57;9.67;;;8.70;;
7761;SDS011;3925;48.636;9.516;2023-02-28T10:51:35;7.70;;;7.00;;
7761;SDS011;3925;48.636;9.516;2023-02-28T10:54:03;9.20;;;8.13;;
7761;SDS011;3925;48.636;9.516;2023-02-28T10:56:31;10.50;;;8.30;;
7761;SDS011;3925;48.636;9.516;2023-02-28T10:58:59;8.70;;;7.90;;
7761;SDS011;3925;48.636;9.516;2023-02-28T11:01:37;8.87;;;8.13;;
7761;SDS011;3925;48.636;9.516;2023-02-28T11:07:04;8.40;;;7.60;;
7761;SDS011;3925;48.636;9.516;2023-02-28T11:09:33;8.30;;;7.50;;
7761;SDS011;3925;48.636;9.516;2023-02-28T11:12:02;9.57;;;7.80;;
7761;SDS011;3925;48.636;9.516;2023-02-28T11:14:31;8.70;;;7.80;;
7761;SDS011;3925;48.636;9.516;2023-02-28T11:17:11;8.87;;;7.07;;
7761;SDS011;3925;48.636;9.516;2023-02-28T11:19:44;8.10;;;7.27;;
7761;SDS011;3925;48.636;9.516;2023-02-28T11:22:17;8.13;;;7.43;;
7761;SDS011;3925;48.636;9.516;2023-02-28T11:24:47;9.03;;;7.80;;
7761;SDS011;3925;48.636;9.516;2023-02-28T11:30:24;8.13;;;7.33;;
7761;SDS011;3925;48.636;9.516;2023-02-28T11:32:53;7.67;;;6.83;;
7761;SDS011;3925;48.636;9.516;2023-02-28T11:35:21;9.77;;;8.00;;
7761;SDS011;3925;48.636;9.516;2023-02-28T11:37:53;9.13;;;7.67;;
7761;SDS011;3925;48.636;9.516;2023-02-28T11:40:22;8.97;;;8.07;;
7761;SDS011;3925;48.636;9.516;2023-02-28T11:42:57;9.00;;;8.10;;
7761;SDS011;3925;48.636;9.516;2023-02-28T11:45:46;8.70;;;7.90;;
7761;SDS011;3925;48.636;9.516;2023-02-28T11:48:24;7.63;;;6.93;;
7761;SDS011;3925;48.636;9.516;2023-02-28T11:50:57;9.10;;;8.30;;
7761;SDS011;3925;48.636;9.516;2023-02-28T11:53:35;8.03;;;7.23;;
7761;SDS011;3925;48.636;9.516;2023-02-28T11:56:10;8.67;;;7.87;;
7761;SDS011;3925;48.636;9.516;2023-02-28T11:58:46;8.27;;;7.57;;
7761;SDS011;3925;48.636;9.516;2023-02-28T12:01:23;9.20;;;8.40;;
7761;SDS011;3925;48.636;9.516;2023-02-28T12:04:01;9.27;;;8.37;;
7761;SDS011;3925;48.636;9.516;2023-02-28T12:06:38;9.10;;;8.20;;
7761;SDS011;3925;48.636;9.516;2023-02-28T12:09:16;9.80;;;8.90;;
7761;SDS011;3925;48.636;9.516;2023-02-28T12:11:59;7.97;;;7.17;;
7761;SDS011;3925;48.636;9.516;2023-02-28T12:14:47;8.50;;;7.63;;
7761;SDS011;3925;48.636;9.516;2023-02-28T12:17:29;8.43;;;7.70;;
7761;SDS011;3925;48.636;9.516;2023-02-28T12:20:05;8.70;;;7.93;;
7761;SDS011;3925;48.636;9.516;2023-02-28T12:22:45;8.53;;;7.73;;
7761;SDS011;3925;48.636;9.516;2023-02-28T12:25:42;8.70;;;7.90;;
7761;SDS011;3925;48.636;9.516;2023-02-28T12:28:17;9.10;;;7.70;;
7761;SDS011;3925;48.636;9.516;2023-02-28T12:30:50;10.13;;;8.40;;
7761;SDS011;3925;48.636;9.516;2023-02-28T12:33:24;8.20;;;7.07;;
7761;SDS011;3925;48.636;9.516;2023-02-28T12:35:57;8.23;;;7.53;;
7761;SDS011;3925;48.636;9.516;2023-02-28T12:38:26;9.10;;;7.80;;
7761;SDS011;3925;48.636;9.516;2023-02-28T12:40:58;8.50;;;7.60;;
7761;SDS011;3925;48.636;9.516;2023-02-28T12:43:31;8.53;;;7.73;;
7761;SDS011;3925;48.636;9.516;2023-02-28T12:46:02;10.63;;;8.97;;
7761;SDS011;3925;48.636;9.516;2023-02-28T12:48:37;9.17;;;7.30;;
7761;SDS011;3925;48.636;9.516;2023-02-28T12:51:07;8.70;;;7.80;;
7761;SDS011;3925;48.636;9.516;2023-02-28T12:53:38;6.70;;;6.10;;
7761;SDS011;3925;48.636;9.516;2023-02-28T12:56:19;8.47;;;7.73;;
7761;SDS011;3925;48.636;9.516;2023-02-28T12:58:57;8.63;;;7.90;;
7761;SDS011;3925;48.636;9.516;2023-02-28T13:07:17;12.10;;;8.03;;
7761;SDS011;3925;48.636;9.516;2023-02-28T13:10:04;7.50;;;6.70;;
7761;SDS011;3925;48.636;9.516;2023-02-28T13:12:34;8.23;;;7.33;;
7761;SDS011;3925;48.636;9.516;2023-02-28T13:15:04;7.90;;;7.10;;
7761;SDS011;3925;48.636;9.516;2023-02-28T13:17:37;8.83;;;8.03;;
7761;SDS011;3925;48.636;9.516;2023-02-28T13:20:13;9.70;;;7.50;;
7761;SDS011;3925;48.636;9.516;2023-02-28T13:22:43;8.57;;;7.63;;
7761;SDS011;3925;48.636;9.516;2023-02-28T13:34:46;8.37;;;7.53;;
7761;SDS011;3925;48.636;9.516;2023-02-28T13:37:40;7.20;;;6.50;;
7761;SDS011;3925;48.636;9.516;2023-02-28T13:40:28;7.27;;;6.57;;
7761;SDS011;3925;48.636;9.516;2023-02-28T13:43:01;7.47;;;6.73;;
7761;SDS011;3925;48.636;9.516;2023-02-28T13:45:29;10.87;;;8.23;;
7761;SDS011;3925;48.636;9.516;2023-02-28T13:48:03;8.60;;;7.07;;
7761;SDS011;3925;48.636;9.516;2023-02-28T13:50:42;9.60;;;8.00;;
7761;SDS011;3925;48.636;9.516;2023-02-28T13:53:30;10.50;;;7.70;;
7761;SDS011;3925;48.636;9.516;2023-02-28T13:59:13;7.50;;;6.80;;
7761;SDS011;3925;48.636;9.516;2023-02-28T14:01:52;8.90;;;7.83;;
7761;SDS011;3925;48.636;9.516;2023-02-28T14:07:36;8.60;;;7.80;;
7761;SDS011;3925;48.636;9.516;2023-02-28T14:10:15;9.10;;;7.00;;
7761;SDS011;3925;48.636;9.516;2023-02-28T14:12:52;12.13;;;7.80;;
7761;SDS011;3925;48.636;9.516;2023-02-28T14:15:28;7.73;;;7.00;;
7761;SDS011;3925;48.636;9.516;2023-02-28T14:18:05;12.73;;;6.73;;
7761;SDS011;3925;48.636;9.516;2023-02-28T14:20:40;8.33;;;7.43;;
7761;SDS011;3925;48.636;9.516;2023-02-28T14:23:12;8.53;;;7.57;;
7761;SDS011;3925;48.636;9.516;2023-02-28T14:25:47;8.50;;;7.47;;
7761;SDS011;3925;48.636;9.516;2023-02-28T14:28:28;9.83;;;8.70;;
7761;SDS011;3925;48.636;9.516;2023-02-28T14:31:12;8.87;;;8.00;;
7761;SDS011;3925;48.636;9.516;2023-02-28T14:33:53;9.87;;;7.23;;
7761;SDS011;3925;48.636;9.516;2023-02-28T14:36:31;8.97;;;7.30;;
7761;SDS011;3925;48.636;9.516;2023-02-28T14:39:03;7.60;;;6.77;;
7761;SDS011;3925;48.636;9.516;2023-02-28T14:41:33;7.53;;;6.73;;
7761;SDS011;3925;48.636;9.516;2023-02-28T14:44:12;9.40;;;6.90;;
7761;SDS011;3925;48.636;9.516;2023-02-28T14:46:41;8.30;;;7.37;;
7761;SDS011;3925;48.636;9.516;2023-02-28T14:49:12;8.93;;;7.27;;
7761;SDS011;3925;48.636;9.516;2023-02-28T14:51:43;8.60;;;7.40;;
7761;SDS011;3925;48.636;9.516;2023-02-28T14:54:14;8.33;;;7.53;;
7761;SDS011;3925;48.636;9.516;2023-02-28T14:56:43;7.63;;;6.80;;
7761;SDS011;3925;48.636;9.516;2023-02-28T14:59:26;13.33;;;6.97;;
7761;SDS011;3925;48.636;9.516;2023-02-28T15:02:15;8.73;;;7.80;;
7761;SDS011;3925;48.636;9.516;2023-02-28T15:04:43;8.50;;;7.70;;
7761;SDS011;3925;48.636;9.516;2023-02-28T15:07:18;8.43;;;7.30;;
7761;SDS011;3925;48.636;9.516;2023-02-28T15:10:07;8.00;;;6.73;;
7761;SDS011;3925;48.636;9.516;2023-02-28T15:12:41;7.80;;;6.47;;
7761;SDS011;3925;48.636;9.516;2023-02-28T15:15:15;7.90;;;7.10;;
7761;SDS011;3925;48.636;9.516;2023-02-28T15:17:43;7.47;;;6.53;;
7761;SDS011;3925;48.636;9.516;2023-02-28T15:20:12;7.87;;;7.07;;
7761;SDS011;3925;48.636;9.516;2023-02-28T15:22:41;9.90;;;8.17;;
7761;SDS011;3925;48.636;9.516;2023-02-28T15:25:10;8.97;;;8.03;;
7761;SDS011;3925;48.636;9.516;2023-02-28T15:27:42;8.07;;;6.60;;
7761;SDS011;3925;48.636;9.516;2023-02-28T15:30:15;10.13;;;7.33;;
7761;SDS011;3925;48.636;9.516;2023-02-28T15:32:44;7.80;;;7.00;;
7761;SDS011;3925;48.636;9.516;2023-02-28T15:35:29;9.20;;;7.47;;
7761;SDS011;3925;48.636;9.516;2023-02-28T15:37:58;7.60;;;6.70;;
7761;SDS011;3925;48.636;9.516;2023-02-28T15:40:30;7.90;;;7.20;;
7761;SDS011;3925;48.636;9.516;2023-02-28T15:42:59;7.87;;;6.90;;
7761;SDS011;3925;48.636;9.516;2023-02-28T15:45:33;9.73;;;7.77;;
7761;SDS011;3925;48.636;9.516;2023-02-28T15:48:03;11.40;;;7.40;;
7761;SDS011;3925;48.636;9.516;2023-02-28T15:50:31;7.47;;;6.80;;
7761;SDS011;3925;48.636;9.516;2023-02-28T15:52:58;6.67;;;6.03;;
7761;SDS011;3925;48.636;9.516;2023-02-28T15:55:29;7.10;;;6.40;;
7761;SDS011;3925;48.636;9.516;2023-02-28T15:57:57;9.30;;;8.10;;
7761;SDS011;3925;48.636;9.516;2023-02-28T16:00:28;9.27;;;8.30;;
7761;SDS011;3925;48.636;9.516;2023-02-28T16:02:57;7.97;;;6.93;;
7761;SDS011;3925;48.636;9.516;2023-02-28T16:05:25;9.10;;;8.20;;
7761;SDS011;3925;48.636;9.516;2023-02-28T16:07:57;9.33;;;8.07;;
7761;SDS011;3925;48.636;9.516;2023-02-28T16:10:26;8.90;;;7.47;;
7761;SDS011;3925;48.636;9.516;2023-02-28T16:12:56;9.47;;;7.50;;